Time;durP1;ratioP1;P1;durP2;ratioP2;P2;SDS_P1;SDS_P2;PMS_P1;PMS_P2;Temp;Humidity;BMP_temperature;BMP_pressure;BME280_temperature;BME280_humidity;BME280_pressure;Samples;Min_cycle;Max_cycle;Signal;HPM_P1;HPM_P2
2022/01/25 00:10:03;;;;;;;61.67;38.38;;;4.20;99.90;;;;;;6153542;23;20354;-86
2022/01/25 00:26:22;;;;;;;66.50;38.00;;;4.60;99.90;;;;;;6155427;23;20096;-86
2022/01/25 00:28:52;;;;;;;60.80;37.95;;;4.10;99.90;;;;;;6154695;23;20454;-86
2022/01/25 00:31:18;;;;;;;58.55;36.33;;;4.40;99.90;;;;;;6129296;23;20450;-86
2022/01/25 00:33:47;;;;;;;63.78;37.10;;;4.40;99.90;;;;;;6129681;23;20017;-86
2022/01/25 00:36:16;;;;;;;64.03;39.10;;;4.10;99.90;;;;;;6154631;23;20026;-87
2022/01/25 00:38:42;;;;;;;65.70;39.15;;;4.10;99.90;;;;;;6128721;23;20024;-87
2022/01/25 00:41:08;;;;;;;66.75;38.47;;;4.10;99.90;;;;;;6153973;23;20018;-87
2022/01/25 00:43:34;;;;;;;63.03;36.97;;;4.50;99.90;;;;;;6130268;23;20101;-87
2022/01/25 00:46:05;;;;;;;60.60;36.92;;;4.90;99.90;;;;;;6153901;23;20048;-86
2022/01/25 00:51:18;;;;;;;63.00;38.75;;;4.90;99.90;;;;;;6153930;23;20393;-87
2022/01/25 00:53:59;;;;;;;67.15;37.95;;;4.10;99.90;;;;;;6155717;23;20018;-87
2022/01/25 00:56:32;;;;;;;64.40;38.55;;;4.10;99.90;;;;;;6156154;23;20108;-87
2022/01/25 00:58:59;;;;;;;63.15;37.70;;;4.50;99.90;;;;;;6130490;23;20025;-86
2022/01/25 01:01:25;;;;;;;64.70;37.53;;;4.10;99.90;;;;;;6131419;23;20018;-87
2022/01/25 01:03:51;;;;;;;62.45;37.03;;;4.40;99.90;;;;;;6156266;23;20032;-86
2022/01/25 01:06:17;;;;;;;58.92;35.50;;;4.10;99.90;;;;;;6155289;23;20341;-87
2022/01/25 01:08:43;;;;;;;62.90;37.28;;;4.40;99.90;;;;;;6131243;23;20070;-87
2022/01/25 01:11:15;;;;;;;59.40;38.42;;;4.50;99.90;;;;;;6131179;23;20045;-86
2022/01/25 01:13:54;;;;;;;59.33;37.40;;;4.10;99.90;;;;;;6130330;23;20045;-86
2022/01/25 01:30:33;;;;;;;58.03;35.72;;;4.50;99.90;;;;;;6155877;23;20033;-87
2022/01/25 01:38:26;;;;;;;66.80;37.58;;;4.10;99.90;;;;;;6155594;23;20104;-87
2022/01/25 01:43:35;;;;;;;61.67;36.42;;;4.10;99.90;;;;;;6156272;23;20032;-87
2022/01/25 01:48:57;;;;;;;60.13;37.25;;;4.20;99.90;;;;;;6154456;23;20064;-87
2022/01/25 01:51:36;;;;;;;61.13;36.90;;;4.20;99.90;;;;;;6155681;23;20053;-87
2022/01/25 01:54:11;;;;;;;61.53;36.53;;;4.70;99.90;;;;;;6130335;23;20040;-87
2022/01/25 01:56:38;;;;;;;60.33;35.95;;;4.10;99.90;;;;;;6156288;23;20021;-87
2022/01/25 01:59:07;;;;;;;60.30;37.65;;;4.50;99.90;;;;;;6155391;23;20025;-87
2022/01/25 02:01:36;;;;;;;59.28;35.80;;;4.20;99.90;;;;;;6130052;23;20018;-87
2022/01/25 02:04:04;;;;;;;64.05;37.10;;;4.10;99.90;;;;;;6154917;23;20022;-87
2022/01/25 02:06:30;;;;;;;64.30;38.25;;;4.10;99.90;;;;;;6155806;23;20018;-87
2022/01/25 02:08:56;;;;;;;63.75;39.13;;;4.10;99.90;;;;;;6154841;23;20025;-86
2022/01/25 02:11:22;;;;;;;61.63;36.65;;;4.40;99.90;;;;;;6135760;23;20104;-87
2022/01/25 02:13:48;;;;;;;65.85;38.08;;;4.60;99.90;;;;;;6160015;23;20024;-87
2022/01/25 02:16:31;;;;;;;63.03;36.33;;;4.50;99.90;;;;;;6134378;23;20036;-87
2022/01/25 02:24:32;;;;;;;64.55;39.13;;;4.10;99.90;;;;;;6158845;23;20025;-87
2022/01/25 02:26:58;;;;;;;62.20;38.28;;;4.40;99.90;;;;;;6160099;23;20021;-87
2022/01/25 02:29:25;;;;;;;65.40;38.60;;;4.10;99.90;;;;;;6134420;23;20055;-87
2022/01/25 02:31:52;;;;;;;60.70;36.72;;;4.10;99.90;;;;;;6135473;23;20397;-87
2022/01/25 02:34:18;;;;;;;65.03;38.22;;;4.10;99.90;;;;;;6160199;23;20036;-87
2022/01/25 02:36:44;;;;;;;63.78;37.83;;;4.90;99.90;;;;;;6134761;23;20017;-86
2022/01/25 02:39:10;;;;;;;62.45;37.40;;;4.10;99.90;;;;;;6160084;23;20020;-87
2022/01/25 02:41:37;;;;;;;63.88;39.17;;;4.10;99.90;;;;;;6160127;23;20013;-87
2022/01/25 02:44:04;;;;;;;61.63;37.88;;;4.30;99.90;;;;;;6158814;23;20017;-87
2022/01/25 02:49:00;;;;;;;58.38;37.60;;;5.10;99.90;;;;;;6159805;23;20488;-87
2022/01/25 02:51:33;;;;;;;68.95;38.75;;;4.10;99.90;;;;;;6158816;23;20067;-87
2022/01/25 02:53:59;;;;;;;66.60;38.17;;;4.00;99.90;;;;;;6159999;23;20437;-87
2022/01/25 02:56:26;;;;;;;63.47;38.40;;;4.70;99.90;;;;;;6159777;23;20017;-87
2022/01/25 02:58:52;;;;;;;65.15;38.53;;;4.10;99.90;;;;;;6134398;23;20028;-87
2022/01/25 03:01:18;;;;;;;61.08;37.50;;;4.10;99.90;;;;;;6159666;23;20330;-86
2022/01/25 03:03:44;;;;;;;62.97;39.17;;;4.40;99.90;;;;;;6160155;23;20029;-87
2022/01/25 03:06:14;;;;;;;65.55;39.08;;;4.90;99.90;;;;;;6134923;23;20013;-87
2022/01/25 03:08:40;;;;;;;61.67;38.25;;;4.30;99.90;;;;;;6135258;23;20515;-86
2022/01/25 03:11:06;;;;;;;58.97;36.75;;;4.40;99.90;;;;;;6159885;23;20021;-86
2022/01/25 03:13:37;;;;;;;64.45;38.80;;;4.00;99.90;;;;;;6134175;23;20021;-87
2022/01/25 03:16:04;;;;;;;69.82;40.85;;;4.00;99.90;;;;;;6159857;23;20024;-87
2022/01/25 03:21:02;;;;;;;60.65;38.40;;;4.40;99.90;;;;;;6159712;23;20473;-87
2022/01/25 03:23:30;;;;;;;59.28;36.10;;;4.40;99.90;;;;;;6159348;23;20024;-87
2022/01/25 03:25:56;;;;;;;65.70;37.53;;;4.60;99.90;;;;;;6158507;23;20013;-87
2022/01/25 03:28:21;;;;;;;66.78;40.00;;;4.00;99.90;;;;;;6159534;23;20064;-87
2022/01/25 03:30:48;;;;;;;64.85;40.38;;;4.30;99.90;;;;;;6159474;23;20017;-87
2022/01/25 03:33:15;;;;;;;70.15;39.75;;;4.00;99.90;;;;;;6158448;23;20028;-87
2022/01/25 03:35:42;;;;;;;64.80;38.38;;;4.00;99.90;;;;;;6134894;23;20013;-87
2022/01/25 03:38:08;;;;;;;61.42;37.75;;;4.40;99.90;;;;;;6134878;23;20032;-87
2022/01/25 03:40:34;;;;;;;65.68;40.28;;;4.20;99.90;;;;;;6158399;23;20013;-87
2022/01/25 03:43:01;;;;;;;64.00;38.35;;;4.50;99.90;;;;;;6134629;23;20023;-87
2022/01/25 03:45:32;;;;;;;72.00;38.65;;;4.00;99.90;;;;;;6159879;23;20014;-87
2022/01/25 03:49:48;;;;;;;67.72;39.53;;;4.00;99.90;;;;;;6133876;23;20060;-87
2022/01/25 03:50:46;;;;;;;68.65;41.08;;;4.30;99.90;;;;;;6159522;23;20436;-87
2022/01/25 03:53:13;;;;;;;65.57;39.25;;;4.00;99.90;;;;;;6159945;23;20021;-87
2022/01/25 03:55:39;;;;;;;63.15;38.50;;;4.80;99.90;;;;;;6158346;23;20024;-87
2022/01/25 03:58:06;;;;;;;64.43;38.78;;;4.00;99.90;;;;;;6159373;23;20017;-87
2022/01/25 04:00:34;;;;;;;60.17;38.35;;;4.00;99.90;;;;;;6134716;23;20087;-87
2022/01/25 04:03:05;;;;;;;63.10;38.50;;;4.00;99.90;;;;;;6135241;23;20341;-87
2022/01/25 04:08:00;;;;;;;66.68;39.83;;;4.10;99.90;;;;;;6158469;23;20020;-87
2022/01/25 04:10:26;;;;;;;62.08;39.83;;;4.00;99.90;;;;;;6129155;23;20017;-87
2022/01/25 04:12:52;;;;;;;66.50;39.55;;;4.20;99.90;;;;;;6129659;23;20119;-87
2022/01/25 04:15:18;;;;;;;66.70;39.97;;;4.00;99.90;;;;;;6153936;23;20024;-87
2022/01/25 04:17:49;;;;;;;65.88;38.90;;;4.30;99.90;;;;;;6154325;23;20021;-87
2022/01/25 04:25:25;;;;;;;66.07;38.80;;;5.00;99.90;;;;;;6154434;23;20022;-87
2022/01/25 04:27:51;;;;;;;64.93;39.17;;;4.40;99.90;;;;;;6156201;23;20017;-87
2022/01/25 04:30:17;;;;;;;63.83;37.13;;;4.00;99.90;;;;;;6155386;23;20028;-87
2022/01/25 04:32:47;;;;;;;66.05;39.13;;;4.20;99.90;;;;;;6156024;23;20021;-87
2022/01/25 04:49:11;;;;;;;68.38;40.25;;;4.30;99.90;;;;;;6155935;23;20025;-87
2022/01/25 04:57:10;;;;;;;62.15;37.53;;;4.00;99.90;;;;;;6155401;23;20017;-87
2022/01/25 05:02:17;;;;;;;63.85;37.85;;;4.20;99.90;;;;;;6155912;23;20018;-87
2022/01/25 05:04:49;;;;;;;71.70;40.63;;;4.10;99.90;;;;;;6154980;23;20018;-87
2022/01/25 05:07:29;;;;;;;66.90;39.22;;;4.50;99.90;;;;;;6156166;23;20529;-87
2022/01/25 05:09:55;;;;;;;66.18;40.97;;;4.20;99.90;;;;;;6155615;23;20017;-87
2022/01/25 05:12:44;;;;;;;66.93;40.78;;;3.90;99.90;;;;;;6154789;23;20084;-87
2022/01/25 05:18:35;;;;;;;69.45;40.03;;;4.20;99.90;;;;;;6132593;23;20017;-86
2022/01/25 05:23:35;;;;;;;66.22;38.92;;;4.40;99.90;;;;;;6155917;23;20053;-87
2022/01/25 05:26:01;;;;;;;73.45;40.95;;;4.40;99.90;;;;;;6154960;23;20024;-87
2022/01/25 05:28:27;;;;;;;66.63;39.35;;;3.90;99.90;;;;;;6156728;23;20097;-87
2022/01/25 05:30:53;;;;;;;69.13;40.55;;;4.30;99.90;;;;;;6155659;23;20053;-87
2022/01/25 05:33:18;;;;;;;70.63;40.38;;;3.90;99.90;;;;;;6130056;23;20077;-87
2022/01/25 05:35:44;;;;;;;66.55;41.03;;;4.00;99.90;;;;;;6131223;23;20024;-87
2022/01/25 05:38:10;;;;;;;67.10;40.90;;;4.50;99.90;;;;;;6131470;23;20022;-87
2022/01/25 05:40:48;;;;;;;66.70;40.33;;;4.00;99.90;;;;;;6130114;23;20025;-87
2022/01/25 05:48:12;;;;;;;66.75;38.13;;;4.50;99.90;;;;;;6154641;23;20025;-87
2022/01/25 05:50:38;;;;;;;63.28;39.65;;;4.30;99.90;;;;;;6130975;23;20014;-87
2022/01/25 05:53:03;;;;;;;65.70;38.65;;;4.60;99.90;;;;;;6155235;23;20072;-87
2022/01/25 05:55:29;;;;;;;66.25;39.72;;;3.90;99.90;;;;;;6154984;23;20021;-87
2022/01/25 05:57:55;;;;;;;65.13;40.08;;;3.90;99.90;;;;;;6130916;23;20014;-87
2022/01/25 06:00:21;;;;;;;64.47;40.15;;;3.90;99.90;;;;;;6129876;23;20545;-87
2022/01/25 06:02:53;;;;;;;62.20;38.17;;;4.10;99.90;;;;;;6155459;23;20021;-87
2022/01/25 06:05:19;;;;;;;67.15;40.65;;;4.00;99.90;;;;;;6155702;23;20401;-85
2022/01/25 06:07:44;;;;;;;68.35;40.95;;;4.60;99.90;;;;;;6153958;23;20053;-78
2022/01/25 06:10:10;;;;;;;68.90;40.72;;;4.00;99.90;;;;;;6155193;23;20026;-77
2022/01/25 06:12:36;;;;;;;65.22;36.50;;;3.90;99.90;;;;;;6155038;23;20037;-77
2022/01/25 06:15:03;;;;;;;65.35;38.58;;;3.90;99.90;;;;;;6154386;23;20022;-78
2022/01/25 06:17:28;;;;;;;62.28;38.22;;;4.00;99.90;;;;;;6157072;23;20017;-78
2022/01/25 06:19:54;;;;;;;67.78;39.67;;;3.90;99.90;;;;;;6157178;23;20073;-77
2022/01/25 06:22:20;;;;;;;68.53;38.92;;;4.00;99.90;;;;;;6154341;23;20501;-77
2022/01/25 06:24:45;;;;;;;72.28;40.28;;;4.00;99.90;;;;;;6155127;23;20025;-77
2022/01/25 06:27:11;;;;;;;72.22;41.70;;;3.90;99.90;;;;;;6155183;23;20022;-77
2022/01/25 06:29:37;;;;;;;66.47;39.10;;;4.20;99.90;;;;;;6154230;23;20029;-79
2022/01/25 06:32:03;;;;;;;69.00;40.45;;;4.00;99.90;;;;;;6131075;23;20021;-79
2022/01/25 06:34:29;;;;;;;69.85;41.03;;;4.00;99.90;;;;;;6154885;23;20025;-79
2022/01/25 06:36:54;;;;;;;68.75;40.03;;;4.00;99.90;;;;;;6154385;23;20017;-79
2022/01/25 06:39:20;;;;;;;66.82;41.00;;;4.00;99.90;;;;;;6130144;23;20349;-79
2022/01/25 06:41:46;;;;;;;67.60;40.95;;;4.00;99.90;;;;;;6156807;23;20018;-79
2022/01/25 06:44:12;;;;;;;68.30;39.53;;;4.00;99.90;;;;;;6155927;23;20350;-80
2022/01/25 06:46:38;;;;;;;66.65;40.35;;;4.30;99.90;;;;;;6156470;23;20013;-79
2022/01/25 06:49:04;;;;;;;68.57;39.75;;;3.90;99.90;;;;;;6156517;23;20018;-78
2022/01/25 06:51:30;;;;;;;69.72;39.72;;;4.20;99.90;;;;;;6154298;23;20021;-79
2022/01/25 06:53:56;;;;;;;69.80;40.25;;;4.00;99.90;;;;;;6156525;23;20021;-79
2022/01/25 06:56:22;;;;;;;60.15;37.85;;;4.00;99.90;;;;;;6154721;23;20342;-79
2022/01/25 06:58:48;;;;;;;66.63;39.95;;;4.00;99.90;;;;;;6154195;23;20021;-80
2022/01/25 07:01:13;;;;;;;67.53;40.63;;;4.00;99.90;;;;;;6154860;23;20022;-80
2022/01/25 07:03:39;;;;;;;68.25;39.08;;;4.00;99.90;;;;;;6153551;23;20017;-78
2022/01/25 07:06:05;;;;;;;71.50;42.42;;;4.00;99.90;;;;;;6156198;23;20113;-78
2022/01/25 07:08:31;;;;;;;68.15;39.92;;;4.00;99.90;;;;;;6154519;23;20029;-78
2022/01/25 07:10:57;;;;;;;68.55;41.20;;;4.00;99.90;;;;;;6180644;23;20040;-78
2022/01/25 07:13:22;;;;;;;67.30;38.88;;;3.90;99.90;;;;;;6185543;23;20017;-78
2022/01/25 07:15:48;;;;;;;71.82;42.17;;;4.00;99.90;;;;;;6159518;23;20082;-78
2022/01/25 07:18:15;;;;;;;70.88;41.22;;;4.00;99.90;;;;;;6158392;23;20472;-78
2022/01/25 07:20:41;;;;;;;71.18;41.70;;;3.90;99.90;;;;;;6159857;23;20044;-78
2022/01/25 07:23:06;;;;;;;66.40;40.42;;;3.90;99.90;;;;;;6159098;23;20025;-78
2022/01/25 07:25:32;;;;;;;70.63;39.40;;;4.00;99.90;;;;;;6185114;23;20070;-78
2022/01/25 07:27:58;;;;;;;72.50;42.13;;;4.00;99.90;;;;;;6159561;23;20032;-79
2022/01/25 07:30:24;;;;;;;68.35;39.58;;;4.00;99.90;;;;;;6185456;23;20029;-78
2022/01/25 07:32:49;;;;;;;67.63;40.53;;;3.90;99.90;;;;;;6183429;23;20053;-78
2022/01/25 07:35:15;;;;;;;68.70;41.78;;;4.60;99.90;;;;;;6185863;23;20045;-78
2022/01/25 07:37:41;;;;;;;71.03;43.15;;;4.00;99.90;;;;;;6159119;23;20035;-78
2022/01/25 07:40:07;;;;;;;70.68;41.13;;;3.90;99.90;;;;;;6158191;23;20025;-78
2022/01/25 07:42:36;;;;;;;66.20;39.60;;;3.90;99.90;;;;;;6159363;23;20025;-78
2022/01/25 07:45:07;;;;;;;70.40;39.88;;;3.90;99.90;;;;;;6185914;23;20013;-78
2022/01/25 07:47:35;;;;;;;72.13;41.80;;;3.90;99.90;;;;;;6184795;23;20017;-78
2022/01/25 07:50:00;;;;;;;69.13;41.22;;;3.90;99.90;;;;;;6184778;23;20013;-78
2022/01/25 07:52:26;;;;;;;73.63;43.78;;;4.00;99.90;;;;;;6159056;23;20063;-78
2022/01/25 07:54:52;;;;;;;63.25;39.33;;;3.90;99.90;;;;;;6184503;23;20021;-78
2022/01/25 07:57:17;;;;;;;67.00;40.05;;;3.90;99.90;;;;;;6159165;23;20459;-78
2022/01/25 07:59:43;;;;;;;64.78;40.00;;;4.00;99.90;;;;;;6158142;23;20096;-79
2022/01/25 08:02:15;;;;;;;73.80;42.50;;;3.90;99.90;;;;;;6160414;23;20021;-78
2022/01/25 08:04:41;;;;;;;63.75;39.17;;;3.90;99.90;;;;;;6188064;23;20013;-78
2022/01/25 08:07:06;;;;;;;80.43;45.08;;;3.90;99.90;;;;;;6186663;23;20104;-78
2022/01/25 08:09:32;;;;;;;68.97;43.53;;;3.90;99.90;;;;;;6155674;23;20076;-78
2022/01/25 08:11:58;;;;;;;73.10;41.70;;;4.30;99.90;;;;;;6157737;23;20025;-78
2022/01/25 08:14:23;;;;;;;68.03;40.40;;;3.90;99.90;;;;;;6155167;23;20061;-78
2022/01/25 08:16:51;;;;;;;68.05;40.60;;;4.00;99.90;;;;;;6156070;23;20299;-78
2022/01/25 08:19:18;;;;;;;67.78;39.47;;;4.00;99.90;;;;;;6157853;23;20113;-78
2022/01/25 08:21:44;;;;;;;65.95;40.28;;;4.00;99.90;;;;;;6156835;23;20036;-78
2022/01/25 08:24:13;;;;;;;74.65;42.53;;;4.00;99.90;;;;;;6155737;23;20108;-78
2022/01/25 08:26:40;;;;;;;66.35;40.38;;;4.00;99.90;;;;;;6156170;23;20025;-78
2022/01/25 08:29:06;;;;;;;65.78;39.05;;;4.10;99.90;;;;;;6155143;23;20028;-78
2022/01/25 08:31:32;;;;;;;70.50;41.63;;;4.20;99.90;;;;;;6156175;23;20028;-78
2022/01/25 08:33:59;;;;;;;73.90;39.90;;;4.00;99.90;;;;;;6155609;23;20458;-78
2022/01/25 08:36:25;;;;;;;69.40;41.70;;;4.00;99.90;;;;;;6157016;23;20076;-78
2022/01/25 08:38:50;;;;;;;63.78;39.70;;;4.00;99.90;;;;;;6155872;23;20457;-78
2022/01/25 08:41:17;;;;;;;71.28;41.70;;;4.00;99.90;;;;;;6157741;23;20017;-78
2022/01/25 08:43:43;;;;;;;73.32;40.60;;;4.00;99.90;;;;;;6157007;23;20080;-78
2022/01/25 08:46:10;;;;;;;70.18;40.22;;;4.00;99.90;;;;;;6157760;23;20013;-78
2022/01/25 08:48:35;;;;;;;69.15;42.03;;;4.00;99.90;;;;;;6157410;23;20053;-78
2022/01/25 08:51:01;;;;;;;68.72;40.08;;;4.00;99.90;;;;;;6155126;23;20088;-78
2022/01/25 08:53:28;;;;;;;74.60;42.22;;;4.00;99.90;;;;;;6157560;23;20402;-78
2022/01/25 08:55:53;;;;;;;73.05;41.63;;;4.60;99.90;;;;;;6157152;23;20021;-78
2022/01/25 08:58:19;;;;;;;67.03;42.00;;;4.00;99.90;;;;;;6154952;23;20303;-78
2022/01/25 09:00:45;;;;;;;68.25;42.17;;;4.00;99.90;;;;;;6157464;23;20021;-78
2022/01/25 09:03:12;;;;;;;70.18;41.47;;;4.00;99.90;;;;;;6154863;23;20438;-78
2022/01/25 09:05:38;;;;;;;66.53;39.13;;;4.10;99.90;;;;;;6157018;23;20088;-78
2022/01/25 09:08:05;;;;;;;70.88;42.22;;;4.10;99.90;;;;;;6156961;23;20450;-78
2022/01/25 09:10:34;;;;;;;67.82;40.50;;;4.10;99.90;;;;;;6154448;23;20029;-78
2022/01/25 09:13:07;;;;;;;65.53;39.15;;;4.10;99.90;;;;;;6156642;23;20025;-78
2022/01/25 09:15:33;;;;;;;68.78;41.40;;;4.10;99.90;;;;;;6157568;23;20096;-78
2022/01/25 09:18:05;;;;;;;69.97;40.28;;;4.10;99.90;;;;;;6154773;23;20052;-78
2022/01/25 09:20:33;;;;;;;72.07;41.45;;;4.10;99.90;;;;;;6157300;23;20029;-78
2022/01/25 09:23:01;;;;;;;68.47;39.85;;;4.10;99.90;;;;;;6157348;23;20104;-78
2022/01/25 09:25:27;;;;;;;61.80;39.40;;;4.10;99.90;;;;;;6156340;23;20022;-78
2022/01/25 09:27:53;;;;;;;67.72;40.70;;;4.10;99.90;;;;;;6157188;23;20026;-78
2022/01/25 09:30:26;;;;;;;69.13;41.03;;;4.10;99.90;;;;;;6157507;23;20020;-78
2022/01/25 09:32:52;;;;;;;71.18;41.00;;;4.10;99.90;;;;;;6154348;23;20017;-78
2022/01/25 09:38:12;;;;;;;76.53;41.53;;;4.20;99.90;;;;;;6156645;23;20025;-78
2022/01/25 09:40:40;;;;;;;70.38;40.55;;;4.20;99.90;;;;;;6156856;23;20024;-78
2022/01/25 09:43:07;;;;;;;75.38;40.95;;;4.20;99.90;;;;;;6157354;23;20194;-78
2022/01/25 09:45:35;;;;;;;71.35;41.75;;;4.20;99.90;;;;;;6156271;23;20026;-78
2022/01/25 09:48:01;;;;;;;69.80;39.58;;;4.20;99.90;;;;;;6155122;23;20350;-78
2022/01/25 09:50:27;;;;;;;69.90;39.80;;;4.20;99.90;;;;;;6155350;23;20101;-78
2022/01/25 09:52:53;;;;;;;70.38;42.03;;;4.20;99.90;;;;;;6154365;23;20442;-78
2022/01/25 09:55:22;;;;;;;70.72;41.10;;;4.20;99.90;;;;;;6156759;23;20069;-78
2022/01/25 09:57:49;;;;;;;72.30;41.28;;;4.20;99.90;;;;;;6155182;23;20153;-78
2022/01/25 10:00:19;;;;;;;68.80;40.45;;;4.20;99.90;;;;;;6155859;23;20018;-78
2022/01/25 10:03:11;;;;;;;75.40;41.58;;;4.20;99.90;;;;;;6155026;23;20060;-78
2022/01/25 10:05:46;;;;;;;68.45;38.78;;;4.20;99.90;;;;;;6157025;23;20025;-78
2022/01/25 10:08:25;;;;;;;68.45;39.60;;;4.20;99.90;;;;;;6156052;23;20018;-78
2022/01/25 10:10:59;;;;;;;76.78;40.25;;;4.20;99.90;;;;;;6180631;23;20017;-78
2022/01/25 10:13:28;;;;;;;69.63;41.28;;;4.20;99.90;;;;;;6159146;23;20449;-78
2022/01/25 10:16:04;;;;;;;73.75;42.28;;;4.30;99.90;;;;;;6160455;23;20080;-78
2022/01/25 10:18:47;;;;;;;70.47;41.83;;;4.30;99.90;;;;;;6186263;23;20087;-78
2022/01/25 10:21:25;;;;;;;69.10;41.38;;;4.30;99.90;;;;;;6159026;23;20021;-78
2022/01/25 10:24:06;;;;;;;73.45;42.53;;;4.30;99.90;;;;;;6186031;23;20013;-78
2022/01/25 10:27:02;;;;;;;69.13;40.25;;;4.30;99.90;;;;;;6186219;23;20446;-78
2022/01/25 10:29:36;;;;;;;69.95;39.92;;;4.30;99.90;;;;;;6178047;23;20019;-78
2022/01/25 10:32:09;;;;;;;75.13;43.40;;;4.30;99.90;;;;;;6186510;23;20021;-78
2022/01/25 10:34:38;;;;;;;71.13;41.38;;;4.30;99.90;;;;;;6185145;23;20020;-78
2022/01/25 10:37:18;;;;;;;76.35;42.33;;;4.30;99.90;;;;;;6186370;23;20013;-78
2022/01/25 10:39:51;;;;;;;73.35;41.67;;;4.30;99.90;;;;;;6186196;23;20024;-78
2022/01/25 10:42:28;;;;;;;74.25;42.85;;;4.30;99.90;;;;;;6158548;23;20139;-78
2022/01/25 10:45:06;;;;;;;70.72;42.30;;;4.30;99.90;;;;;;6159399;23;20369;-78
2022/01/25 10:48:01;;;;;;;78.43;42.95;;;4.30;99.90;;;;;;6186219;23;20028;-77
2022/01/25 10:50:35;;;;;;;51.60;30.53;;;4.30;99.90;;;;;;6133888;23;20418;-77
2022/01/25 10:53:10;;;;;;;73.25;42.03;;;4.30;99.90;;;;;;6159675;23;20017;-77
2022/01/25 10:55:46;;;;;;;;;;;4.30;99.90;;;;;;6158873;23;20457;-77
2022/01/25 10:58:13;;;;;;;70.78;40.10;;;4.60;99.90;;;;;;6159563;23;19916;-77
2022/01/25 11:00:44;;;;;;;75.90;41.33;;;4.30;99.90;;;;;;6159625;23;20053;-77
2022/01/25 11:03:10;;;;;;;79.60;43.30;;;4.30;99.90;;;;;;6185127;23;20063;-77
2022/01/25 11:05:39;;;;;;;76.65;42.67;;;4.40;99.90;;;;;;6159560;23;20025;-78
2022/01/25 11:08:13;;;;;;;74.85;41.90;;;4.30;99.90;;;;;;6186091;23;20017;-77
2022/01/25 11:10:48;;;;;;;80.50;43.80;;;4.40;99.90;;;;;;6184852;23;20029;-77
2022/01/25 11:16:01;;;;;;;77.07;41.17;;;4.40;99.90;;;;;;6159397;23;19948;-78
2022/01/25 11:18:26;;;;;;;77.38;41.88;;;4.40;99.90;;;;;;6158367;23;20507;-78
2022/01/25 11:20:54;;;;;;;78.60;42.80;;;4.40;99.90;;;;;;6186140;23;20080;-78
2022/01/25 11:23:20;;;;;;;73.22;42.90;;;4.80;99.90;;;;;;6185777;23;20058;-78
2022/01/25 11:25:48;;;;;;;79.05;43.90;;;4.40;99.90;;;;;;6157987;23;20049;-78
2022/01/25 11:28:15;;;;;;;76.75;44.15;;;4.50;99.90;;;;;;6159089;23;20021;-77
2022/01/25 11:30:42;;;;;;;82.28;44.10;;;4.60;99.90;;;;;;6185174;23;20020;-78
2022/01/25 11:33:11;;;;;;;90.30;47.53;;;4.50;99.90;;;;;;6159324;23;20028;-77
2022/01/25 11:35:38;;;;;;;89.82;48.05;;;4.50;99.90;;;;;;6159159;23;20025;-77
2022/01/25 11:38:05;;;;;;;89.50;47.30;;;4.50;99.90;;;;;;6184620;23;20069;-77
2022/01/25 11:40:35;;;;;;;89.28;47.78;;;4.50;99.90;;;;;;6158920;23;20020;-77
2022/01/25 11:43:10;;;;;;;85.15;45.83;;;4.50;99.90;;;;;;6159377;23;20025;-78
2022/01/25 11:46:01;;;;;;;85.43;45.85;;;4.50;99.90;;;;;;6184674;23;20467;-78
2022/01/25 11:48:39;;;;;;;83.38;45.63;;;4.40;99.90;;;;;;6185999;23;20021;-78
2022/01/25 11:51:14;;;;;;;82.60;43.70;;;4.40;99.90;;;;;;6185694;23;20084;-78
2022/01/25 11:53:43;;;;;;;91.15;46.97;;;4.40;99.90;;;;;;6184619;23;20341;-78
2022/01/25 11:56:10;;;;;;;85.43;46.05;;;4.40;99.90;;;;;;6158725;23;20017;-78
2022/01/25 11:58:37;;;;;;;79.55;43.72;;;4.50;99.90;;;;;;6159400;23;20025;-78
2022/01/25 12:01:21;;;;;;;82.00;45.05;;;4.40;99.90;;;;;;6184801;23;20306;-78
2022/01/25 12:03:50;;;;;;;87.47;45.72;;;4.40;99.90;;;;;;6159145;23;20032;-78
2022/01/25 12:06:32;;;;;;;81.93;42.28;;;4.40;99.90;;;;;;6184459;23;20512;-77
2022/01/25 12:11:59;;;;;;;84.93;44.47;;;4.40;99.90;;;;;;6185739;23;20048;-78
2022/01/25 12:14:36;;;;;;;84.65;44.47;;;4.50;99.90;;;;;;6158207;23;20485;-78
2022/01/25 12:17:01;;;;;;;78.28;41.25;;;4.40;99.90;;;;;;6159294;23;20017;-78
2022/01/25 12:19:30;;;;;;;78.25;43.38;;;4.50;99.90;;;;;;6159483;23;20017;-78
2022/01/25 12:22:04;;;;;;;81.53;45.15;;;4.50;99.90;;;;;;6185093;23;20180;-78
2022/01/25 12:24:36;;;;;;;83.33;43.03;;;4.50;99.90;;;;;;6158814;23;20407;-78
2022/01/25 12:27:17;;;;;;;79.43;42.60;;;4.50;99.90;;;;;;6158441;23;20021;-78
2022/01/25 12:29:47;;;;;;;81.43;44.95;;;4.50;99.90;;;;;;6159164;23;20013;-78
2022/01/25 12:32:28;;;;;;;80.05;43.17;;;4.50;99.90;;;;;;6185759;23;20021;-78
2022/01/25 12:35:00;;;;;;;88.43;45.45;;;4.50;99.90;;;;;;6184541;23;20025;-78
2022/01/25 12:37:44;;;;;;;86.90;45.80;;;4.50;99.90;;;;;;6159067;23;20092;-78
2022/01/25 12:40:25;;;;;;;86.15;44.35;;;4.50;99.90;;;;;;6158826;23;20025;-78
2022/01/25 12:43:16;;;;;;;80.68;44.95;;;4.50;99.90;;;;;;6158104;23;20021;-78
2022/01/25 12:45:45;;;;;;;90.82;46.65;;;4.50;99.90;;;;;;6185386;23;20017;-78
2022/01/25 12:48:13;;;;;;;91.40;45.45;;;4.50;99.90;;;;;;6185454;23;20028;-78
2022/01/25 12:50:43;;;;;;;90.13;46.80;;;4.60;99.90;;;;;;6161312;23;20100;-78
2022/01/25 12:53:11;;;;;;;83.35;43.72;;;4.50;99.90;;;;;;6160735;23;20021;-78
2022/01/25 12:55:43;;;;;;;86.85;48.03;;;4.50;99.90;;;;;;6186482;23;20336;-78
2022/01/25 12:58:09;;;;;;;90.82;47.28;;;4.50;99.90;;;;;;6186974;23;20016;-78
2022/01/25 13:00:44;;;;;;;90.22;49.28;;;4.50;99.90;;;;;;6186842;23;20024;-78
2022/01/25 13:03:34;;;;;;;90.72;49.05;;;4.50;99.90;;;;;;6186218;23;20020;-78
2022/01/25 13:06:07;;;;;;;95.22;47.67;;;4.60;99.90;;;;;;6160822;23;20342;-78
2022/01/25 13:08:47;;;;;;;95.95;49.58;;;4.60;99.90;;;;;;6186805;23;20441;-78
2022/01/25 13:11:17;;;;;;;88.93;45.83;;;4.50;99.90;;;;;;6185742;23;20535;-78
2022/01/25 13:13:59;;;;;;;88.72;47.65;;;4.90;99.90;;;;;;6187123;23;20035;-77
2022/01/25 13:16:51;;;;;;;85.35;47.92;;;4.50;99.90;;;;;;6185888;23;20072;-77
2022/01/25 13:19:24;;;;;;;89.15;46.97;;;4.50;99.90;;;;;;6160908;23;20024;-77
2022/01/25 13:22:01;;;;;;;93.32;46.65;;;4.50;99.90;;;;;;6186933;23;20059;-78
2022/01/25 13:24:31;;;;;;;80.45;43.03;;;4.50;99.90;;;;;;6159963;23;20104;-78
2022/01/25 13:26:59;;;;;;;88.40;43.70;;;4.50;99.90;;;;;;6160436;23;20111;-78
2022/01/25 13:32:26;;;;;;;88.50;44.92;;;4.50;99.90;;;;;;6185536;23;20025;-78
2022/01/25 13:35:15;;;;;;;92.47;49.03;;;4.50;99.90;;;;;;6160228;23;20025;-78
2022/01/25 13:37:42;;;;;;;97.82;52.38;;;4.50;99.90;;;;;;6159654;23;20169;-78
2022/01/25 13:40:08;;;;;;;94.10;51.50;;;4.50;99.90;;;;;;6186906;23;20076;-78
2022/01/25 13:42:45;;;;;;;87.25;47.53;;;4.50;99.90;;;;;;6160347;23;20031;-78
2022/01/25 13:48:05;;;;;;;83.13;46.05;;;4.70;99.90;;;;;;6186815;23;20104;-78
2022/01/25 13:50:33;;;;;;;109.35;52.17;;;4.40;99.90;;;;;;6160776;23;20056;-78
2022/01/25 13:52:59;;;;;;;96.57;51.83;;;4.40;99.90;;;;;;6185572;23;20020;-78
2022/01/25 13:55:25;;;;;;;99.55;50.22;;;4.40;99.90;;;;;;6160184;23;20021;-78
2022/01/25 13:57:51;;;;;;;96.35;49.85;;;4.50;99.90;;;;;;6160770;23;20358;-78
2022/01/25 14:00:18;;;;;;;92.72;48.20;;;4.40;99.90;;;;;;6159103;23;20032;-78
2022/01/25 14:02:49;;;;;;;96.18;48.67;;;4.40;99.90;;;;;;6160260;23;20052;-78
2022/01/25 14:05:15;;;;;;;93.50;47.28;;;4.50;99.90;;;;;;6186864;23;20028;-77
2022/01/25 14:07:41;;;;;;;86.38;48.55;;;4.40;99.90;;;;;;6185896;23;20013;-78
2022/01/25 14:10:20;;;;;;;94.05;51.88;;;4.40;99.90;;;;;;6185987;23;20401;-78
2022/01/25 14:23:46;;;;;;;82.65;44.40;;;4.40;99.90;;;;;;6160002;23;20060;-78
2022/01/25 14:26:14;;;;;;;86.45;43.17;;;4.30;99.90;;;;;;6159771;23;20017;-78
2022/01/25 14:28:43;;;;;;;73.95;41.38;;;4.30;99.90;;;;;;6158554;23;20021;-78
2022/01/25 14:31:17;;;;;;;75.03;41.00;;;4.40;99.90;;;;;;6186101;23;20017;-78
2022/01/25 14:33:56;;;;;;;80.13;41.10;;;4.30;99.90;;;;;;6185175;23;20024;-78
2022/01/25 14:36:24;;;;;;;81.82;42.83;;;4.30;99.90;;;;;;6186328;23;20017;-77
2022/01/25 14:38:52;;;;;;;73.88;41.58;;;4.30;99.90;;;;;;6186251;23;20009;-78
2022/01/25 14:41:19;;;;;;;77.20;40.83;;;4.30;99.90;;;;;;6185189;23;20024;-78
2022/01/25 14:43:52;;;;;;;78.35;41.65;;;4.30;99.90;;;;;;6186382;23;20013;-77
2022/01/25 14:46:34;;;;;;;70.82;40.65;;;4.30;99.90;;;;;;6186154;23;20021;-78
2022/01/25 14:49:35;;;;;;;74.05;39.33;;;4.30;99.90;;;;;;6184991;23;20024;-78
2022/01/25 14:52:01;;;;;;;83.10;41.08;;;4.20;99.90;;;;;;6185899;23;20092;-77
2022/01/25 14:54:32;;;;;;;79.53;39.35;;;4.20;99.90;;;;;;6185763;23;20025;-78
2022/01/25 14:57:02;;;;;;;71.28;38.60;;;4.20;99.90;;;;;;6185086;23;20506;-78